Welcome to Northern Hawkes Bay. New Zealand.
PWS Header
      nz Flag



Hit Counter


W3C Valid W3C Valid logo


    Wairoa

Select any of the Stations below to visit their websites.










Historic Data from Weather Underground
Select the location of interest below. Wairoa is the default. Please have patience, this Data is slow to load in.
Northern Hawkes Bay Historical Data
Daily Summary for April 8, 2017 Units:  Metric    English   Both
« Previous Day
Next Day »
Daily Weekly Monthly Yearly Custom
  High: Low: Average:
Temperature: 17.3 °C 11.2 °C 14.2 °C
Dew Point: 11.8 °C 7.2 °C 9.7 °C
Humidity: 92% 65% 75%
Wind Speed: 18.3km/h 0.0km/h 4.6km/h
Wind Gust: 27.0km/h - -
Wind- - WSW
Pressure: 1030.7 hPa 1025.3 hPa -
Precipitation: 0.0 mm    
Historical Graphs
 
 
Tabular Data for April 8, 2017
Time Temperature Dew Point Pressure Wind Wind Speed Wind Gust Humidity Rainfall Rate (Hourly) solar
00:01 13.2 °C 9.3 °C 1025.3 hPa WSW 9.7 km/h 18.3 km/h 77% 0.0 mm 0 W/m2
00:07 13.2 °C 9.3 °C 1025.3 hPa WSW 5.0 km/h 17.2 km/h 77% 0.0 mm 0 W/m2
00:13 13.1 °C 9.2 °C 1025.6 hPa WNW 6.1 km/h 18.3 km/h 77% 0.0 mm 0 W/m2
00:19 13.0 °C 9.1 °C 1025.6 hPa West 2.6 km/h 14.8 km/h 77% 0.0 mm 0 W/m2
00:25 13.0 °C 9.1 °C 1025.6 hPa West 5.0 km/h 12.2 km/h 77% 0.0 mm 0 W/m2
00:31 12.9 °C 8.9 °C 1026.0 hPa West 1.1 km/h 12.2 km/h 77% 0.0 mm 0 W/m2
00:37 12.9 °C 8.8 °C 1026.0 hPa Calm   13.4 km/h 76% 0.0 mm 0 W/m2
00:43 12.8 °C 8.7 °C 1026.0 hPa Calm   13.4 km/h 76% 0.0 mm 0 W/m2
00:49 12.8 °C 8.7 °C 1026.0 hPa Calm   12.2 km/h 76% 0.0 mm 0 W/m2
00:55 12.6 °C 8.5 °C 1026.0 hPa Calm   12.2 km/h 76% 0.0 mm 0 W/m2
01:01 12.5 °C 8.4 °C 1026.0 hPa Calm   12.2 km/h 76% 0.0 mm 0 W/m2
01:07 12.5 °C 8.4 °C 1026.0 hPa Calm   12.2 km/h 76% 0.0 mm 0 W/m2
01:13 12.5 °C 8.2 °C 1026.0 hPa Calm   12.2 km/h 75% 0.0 mm 0 W/m2
01:19 12.5 °C 8.2 °C 1026.0 hPa West 1.1 km/h 9.7 km/h 75% 0.0 mm 0 W/m2
01:25 12.5 °C 8.2 °C 1026.0 hPa Calm   9.7 km/h 75% 0.0 mm 0 W/m2
01:31 12.5 °C 8.0 °C 1026.0 hPa Calm   9.7 km/h 74% 0.0 mm 0 W/m2
01:37 12.5 °C 7.8 °C 1026.3 hPa Calm   9.7 km/h 73% 0.0 mm 0 W/m2
01:43 12.4 °C 7.7 °C 1026.3 hPa WSW 2.6 km/h 8.7 km/h 73% 0.0 mm 0 W/m2
01:49 12.4 °C 7.5 °C 1026.3 hPa West 1.1 km/h 8.7 km/h 72% 0.0 mm 0 W/m2
01:55 12.4 °C 7.5 °C 1026.3 hPa West 1.1 km/h 14.8 km/h 72% 0.0 mm 0 W/m2
02:01 12.4 °C 7.3 °C 1026.3 hPa West 9.7 km/h 21.9 km/h 71% 0.0 mm 0 W/m2
02:07 12.4 °C 7.3 °C 1026.3 hPa West 1.1 km/h 21.9 km/h 71% 0.0 mm 0 W/m2
02:13 12.4 °C 7.3 °C 1026.3 hPa West 1.1 km/h 13.4 km/h 71% 0.0 mm 0 W/m2
02:19 12.3 °C 7.2 °C 1026.0 hPa West 2.6 km/h 13.4 km/h 71% 0.0 mm 0 W/m2
02:25 12.3 °C 7.4 °C 1026.3 hPa Calm   8.7 km/h 72% 0.0 mm 0 W/m2
02:31 12.3 °C 7.4 °C 1026.3 hPa Calm   9.7 km/h 72% 0.0 mm 0 W/m2
02:37 12.2 °C 7.3 °C 1026.3 hPa Calm   9.7 km/h 72% 0.0 mm 0 W/m2
02:43 12.2 °C 7.3 °C 1026.0 hPa WNW 2.6 km/h 11.1 km/h 72% 0.0 mm 0 W/m2
02:49 12.3 °C 7.4 °C 1026.3 hPa Calm   11.1 km/h 72% 0.0 mm 0 W/m2
02:55 12.3 °C 7.4 °C 1026.0 hPa Calm   11.1 km/h 72% 0.0 mm 0 W/m2
03:01 12.3 °C 7.4 °C 1026.0 hPa Calm   12.2 km/h 72% 0.0 mm 0 W/m2
03:07 12.3 °C 7.4 °C 1026.0 hPa Calm   12.2 km/h 72% 0.0 mm 0 W/m2
03:13 12.3 °C 7.4 °C 1026.0 hPa Calm   8.7 km/h 72% 0.0 mm 0 W/m2
03:19 12.3 °C 7.4 °C 1026.0 hPa Calm   5.0 km/h 72% 0.0 mm 0 W/m2
03:25 12.3 °C 7.4 °C 1026.0 hPa NW 2.6 km/h 6.1 km/h 72% 0.0 mm 0 W/m2
03:31 12.1 °C 7.4 °C 1026.0 hPa Calm   6.1 km/h 73% 0.0 mm 0 W/m2
03:37 11.9 °C 7.4 °C 1026.0 hPa Calm   6.1 km/h 74% 0.0 mm 0 W/m2
03:43 11.8 °C 7.5 °C 1026.0 hPa NNW 1.1 km/h 6.1 km/h 75% 0.0 mm 0 W/m2
03:49 11.7 °C 7.6 °C 1026.0 hPa NNW 1.1 km/h 6.1 km/h 76% 0.0 mm 0 W/m2
03:55 11.7 °C 7.6 °C 1026.0 hPa NW 1.1 km/h 7.2 km/h 76% 0.0 mm 0 W/m2
04:01 11.7 °C 7.6 °C 1026.0 hPa NW 2.6 km/h 7.2 km/h 76% 0.0 mm 0 W/m2
04:07 11.6 °C 7.5 °C 1026.3 hPa NNW 1.1 km/h 7.2 km/h 76% 0.0 mm 0 W/m2
04:13 11.7 °C 7.6 °C 1026.3 hPa NNW 3.5 km/h 7.2 km/h 76% 0.0 mm 0 W/m2
04:19 11.6 °C 7.5 °C 1026.3 hPa NNW 1.1 km/h 7.2 km/h 76% 0.0 mm 0 W/m2
04:25 11.6 °C 7.5 °C 1026.3 hPa Calm   7.2 km/h 76% 0.0 mm 0 W/m2
04:31 11.6 °C 7.5 °C 1026.6 hPa Calm   7.2 km/h 76% 0.0 mm 0 W/m2
04:37 11.6 °C 7.5 °C 1026.6 hPa Calm   6.1 km/h 76% 0.0 mm 0 W/m2
04:43 11.6 °C 7.5 °C 1026.6 hPa Calm   6.1 km/h 76% 0.0 mm 0 W/m2
04:49 11.6 °C 7.7 °C 1026.6 hPa NNW 2.6 km/h 5.0 km/h 77% 0.0 mm 0 W/m2
04:55 11.5 °C 7.6 °C 1026.6 hPa NNW 1.1 km/h 5.0 km/h 77% 0.0 mm 0 W/m2
05:01 11.4 °C 7.7 °C 1026.6 hPa NNW 3.5 km/h 5.0 km/h 78% 0.0 mm 0 W/m2
05:07 11.4 °C 7.9 °C 1026.6 hPa NNW 1.1 km/h 6.1 km/h 79% 0.0 mm 0 W/m2
05:13 11.4 °C 8.1 °C 1026.6 hPa Calm   6.1 km/h 80% 0.0 mm 0 W/m2
05:19 11.3 °C 8.0 °C 1027.0 hPa North 1.1 km/h 7.2 km/h 80% 0.0 mm 0 W/m2
05:25 11.4 °C 8.1 °C 1026.6 hPa Calm   7.2 km/h 80% 0.0 mm 0 W/m2
05:31 11.4 °C 8.3 °C 1027.0 hPa North 1.1 km/h 6.1 km/h 81% 0.0 mm 0 W/m2
05:37 11.5 °C 8.2 °C 1027.0 hPa Calm   5.0 km/h 80% 0.0 mm 0 W/m2
05:43 11.5 °C 8.2 °C 1027.0 hPa Calm   5.0 km/h 80% 0.0 mm 0 W/m2
05:49 11.4 °C 8.1 °C 1027.3 hPa Calm   3.5 km/h 80% 0.0 mm 0 W/m2
05:55 11.4 °C 8.1 °C 1027.0 hPa Calm   3.5 km/h 80% 0.0 mm 0 W/m2
06:01 11.3 °C 8.2 °C 1027.3 hPa Calm   1.1 km/h 81% 0.0 mm 0 W/m2
06:07 11.2 °C 8.1 °C 1027.0 hPa Calm   1.1 km/h 81% 0.0 mm 0 W/m2
06:13 11.2 °C 8.2 °C 1027.0 hPa Calm     82% 0.0 mm 0 W/m2
06:19 11.2 °C 8.2 °C 1027.3 hPa Calm     82% 0.0 mm 0 W/m2
06:25 11.2 °C 8.2 °C 1027.3 hPa Calm     82% 0.0 mm 0 W/m2
06:31 11.2 °C 8.2 °C 1027.7 hPa Calm     82% 0.0 mm 1 W/m2
06:37 11.3 °C 8.3 °C 1027.7 hPa Calm     82% 0.0 mm 3 W/m2
06:43 11.4 °C 8.4 °C 1027.3 hPa NNW 5.0 km/h 8.7 km/h 82% 0.0 mm 3 W/m2
06:49 11.5 °C 8.6 °C 1027.7 hPa NNW 1.1 km/h 8.7 km/h 82% 0.0 mm 7 W/m2
06:55 11.6 °C 8.4 °C 1027.7 hPa NW 1.1 km/h 7.2 km/h 81% 0.0 mm 11 W/m2
07:01 11.6 °C 8.4 °C 1027.7 hPa NNW 1.1 km/h 8.7 km/h 81% 0.0 mm 18 W/m2
07:07 11.6 °C 8.4 °C 1027.7 hPa NNW 2.6 km/h 8.7 km/h 81% 0.0 mm 23 W/m2
07:13 11.7 °C 8.6 °C 1027.7 hPa North 3.5 km/h 8.7 km/h 81% 0.0 mm 32 W/m2
07:19 11.8 °C 8.7 °C 1027.7 hPa NNW 5.0 km/h 9.7 km/h 81% 0.0 mm 41 W/m2
07:25 11.9 °C 8.7 °C 1028.0 hPa Calm   9.7 km/h 81% 0.0 mm 49 W/m2
07:31 12.1 °C 8.6 °C 1028.0 hPa NNW 2.6 km/h 7.2 km/h 79% 0.0 mm 58 W/m2
07:37 12.3 °C 8.9 °C 1028.0 hPa NNW 1.1 km/h 5.0 km/h 80% 0.0 mm 65 W/m2
07:43 12.4 °C 9.1 °C 1028.3 hPa NNW 1.1 km/h 6.1 km/h 80% 0.0 mm 66 W/m2
07:49 12.5 °C 9.2 °C 1028.3 hPa NNW 3.5 km/h 6.1 km/h 80% 0.0 mm 81 W/m2
07:55 12.5 °C 8.9 °C 1028.3 hPa NNW 3.5 km/h 8.7 km/h 79% 0.0 mm 89 W/m2
08:01 12.7 °C 8.9 °C 1028.7 hPa NNW 2.6 km/h 8.7 km/h 78% 0.0 mm 86 W/m2
08:07 13.0 °C 9.3 °C 1028.7 hPa Calm   7.2 km/h 78% 0.0 mm 100 W/m2
08:13 13.1 °C 9.2 °C 1028.7 hPa NNW 3.5 km/h 9.7 km/h 77% 0.0 mm 256 W/m2
08:19 13.4 °C 9.4 °C 1028.7 hPa NNW 3.5 km/h 9.7 km/h 77% 0.0 mm 145 W/m2
08:25 13.5 °C 9.3 °C 1029.0 hPa NNW 1.1 km/h 7.2 km/h 76% 0.0 mm 83 W/m2
08:31 13.4 °C 9.3 °C 1029.0 hPa NNW 3.5 km/h 7.2 km/h 76% 0.0 mm 65 W/m2
08:37 13.2 °C 9.1 °C 1029.0 hPa NNW 2.6 km/h 11.1 km/h 76% 0.0 mm 68 W/m2
08:43 13.3 °C 9.3 °C 1029.0 hPa Calm   11.1 km/h 77% 0.0 mm 67 W/m2
08:49 13.5 °C 9.6 °C 1029.0 hPa NW 1.1 km/h 6.1 km/h 77% 0.0 mm 53 W/m2
08:55 13.5 °C 9.6 °C 1029.3 hPa Calm   3.5 km/h 77% 0.0 mm 49 W/m2
09:01 13.5 °C 9.6 °C 1029.3 hPa Calm   2.6 km/h 77% 0.0 mm 51 W/m2
09:07 13.6 °C 9.7 °C 1029.3 hPa Calm   2.6 km/h 77% 0.0 mm 54 W/m2
09:13 13.6 °C 9.8 °C 1029.3 hPa NW 1.1 km/h 6.1 km/h 78% 0.0 mm 68 W/m2
09:19 13.7 °C 9.9 °C 1029.3 hPa West 14.8 km/h 17.2 km/h 78% 0.0 mm 76 W/m2
09:25 14.4 °C 10.8 °C 1029.3 hPa West 7.2 km/h 17.2 km/h 79% 0.0 mm 73 W/m2
09:31 14.9 °C 10.9 °C 1029.3 hPa SW 12.2 km/h 23.3 km/h 77% 0.0 mm 94 W/m2
09:37 15.0 °C 10.6 °C 1029.3 hPa SW 12.2 km/h 23.3 km/h 75% 0.0 mm 115 W/m2
09:43 15.1 °C 10.7 °C 1029.3 hPa WSW 6.1 km/h 19.5 km/h 75% 0.0 mm 143 W/m2
09:49 15.3 °C 10.9 °C 1029.3 hPa WSW 6.1 km/h 20.9 km/h 75% 0.0 mm 162 W/m2
09:55 15.4 °C 11.0 °C 1029.3 hPa West 7.2 km/h 20.9 km/h 75% 0.0 mm 189 W/m2
10:01 15.6 °C 11.2 °C 1029.7 hPa West 7.2 km/h 20.9 km/h 75% 0.0 mm 196 W/m2
10:07 15.6 °C 11.0 °C 1029.7 hPa SW 6.1 km/h 20.9 km/h 74% 0.0 mm 198 W/m2
10:13 15.7 °C 11.3 °C 1029.7 hPa SW 6.1 km/h 19.5 km/h 75% 0.0 mm 228 W/m2
10:19 16.1 °C 11.3 °C 1029.7 hPa SW 9.7 km/h 15.8 km/h 73% 0.0 mm 240 W/m2
10:25 16.3 °C 10.6 °C 1029.7 hPa SW 13.4 km/h 20.9 km/h 69% 0.0 mm 257 W/m2
10:31 16.4 °C 10.3 °C 1030.0 hPa SSW 12.2 km/h 23.3 km/h 67% 0.0 mm 268 W/m2
10:37 16.5 °C 10.8 °C 1030.0 hPa SSW 12.2 km/h 23.3 km/h 69% 0.0 mm 276 W/m2
10:43 16.5 °C 10.8 °C 1029.7 hPa SW 14.8 km/h 19.5 km/h 69% 0.0 mm 284 W/m2
10:49 16.5 °C 10.8 °C 1030.0 hPa SW 6.1 km/h 18.3 km/h 69% 0.0 mm 279 W/m2
10:55 16.5 °C 10.8 °C 1030.0 hPa SW 8.7 km/h 24.5 km/h 69% 0.0 mm 295 W/m2
11:01 16.6 °C 11.1 °C 1029.7 hPa SW 11.1 km/h 24.5 km/h 70% 0.0 mm 306 W/m2
11:07 16.7 °C 11.0 °C 1030.0 hPa SW 11.1 km/h 23.3 km/h 69% 0.0 mm 318 W/m2
11:13 16.6 °C 10.7 °C 1030.0 hPa SSW 11.1 km/h 20.9 km/h 68% 0.0 mm 361 W/m2
11:19 16.8 °C 11.3 °C 1030.0 hPa Calm   20.9 km/h 70% 0.0 mm 359 W/m2
11:25 16.8 °C 10.9 °C 1030.0 hPa SW 7.2 km/h 21.9 km/h 68% 0.0 mm 360 W/m2
11:31 17.2 °C 11.3 °C 1030.0 hPa SW 11.1 km/h 21.9 km/h 68% 0.0 mm 393 W/m2
11:37 17.0 °C 11.3 °C 1030.0 hPa SW 7.2 km/h 18.3 km/h 69% 0.0 mm 418 W/m2
11:43 17.1 °C 11.2 °C 1030.0 hPa SW 6.1 km/h 18.3 km/h 68% 0.0 mm 437 W/m2
11:49 17.3 °C 11.6 °C 1030.0 hPa SW 13.4 km/h 18.3 km/h 69% 0.0 mm 447 W/m2
11:55 17.0 °C 11.3 °C 1030.0 hPa WSW 6.1 km/h 21.9 km/h 69% 0.0 mm 450 W/m2
12:01 17.1 °C 11.2 °C 1030.0 hPa SW 11.1 km/h 23.3 km/h 68% 0.0 mm 386 W/m2
12:07 16.8 °C 11.7 °C 1030.0 hPa WSW 9.7 km/h 23.3 km/h 72% 0.0 mm 308 W/m2
12:13 16.7 °C 11.4 °C 1030.0 hPa SW 13.4 km/h 25.6 km/h 71% 0.0 mm 392 W/m2
12:19 16.9 °C 11.6 °C 1030.0 hPa SW 14.8 km/h 25.6 km/h 71% 0.0 mm 350 W/m2
12:25 17.1 °C 11.2 °C 1029.7 hPa SW 12.2 km/h 19.5 km/h 68% 0.0 mm 187 W/m2
12:31 16.7 °C 11.4 °C 1030.0 hPa SSW 11.1 km/h 18.3 km/h 71% 0.0 mm 167 W/m2
12:37 16.5 °C 11.4 °C 1030.0 hPa SSW 7.2 km/h 18.3 km/h 72% 0.0 mm 183 W/m2
12:43 16.6 °C 11.6 °C 1029.7 hPa SSW 17.2 km/h 25.6 km/h 72% 0.0 mm 205 W/m2
12:49 16.5 °C 11.2 °C 1029.7 hPa SW 9.7 km/h 25.6 km/h 71% 0.0 mm 298 W/m2
12:55 17.0 °C 10.8 °C 1029.7 hPa SW 13.4 km/h 24.5 km/h 67% 0.0 mm 370 W/m2
13:01 17.0 °C 10.4 °C 1029.7 hPa SSW 14.8 km/h 24.5 km/h 65% 0.0 mm 172 W/m2
13:07 16.7 °C 10.8 °C 1029.7 hPa South 12.2 km/h 24.5 km/h 68% 0.0 mm 114 W/m2
13:13 16.3 °C 10.4 °C 1029.7 hPa SSW 13.4 km/h 21.9 km/h 68% 0.0 mm 122 W/m2
13:19 16.2 °C 9.8 °C 1029.7 hPa SSW 14.8 km/h 21.9 km/h 66% 0.0 mm 143 W/m2
13:25 16.2 °C 9.8 °C 1029.7 hPa SSW 13.4 km/h 21.9 km/h 66% 0.0 mm 149 W/m2
13:31 16.3 °C 9.9 °C 1029.3 hPa SSW 6.1 km/h 21.9 km/h 66% 0.0 mm 165 W/m2
13:37 16.4 °C 10.5 °C 1029.3 hPa SSW 12.2 km/h 20.9 km/h 68% 0.0 mm 172 W/m2
13:43 16.4 °C 10.3 °C 1029.3 hPa SSW 11.1 km/h 21.9 km/h 67% 0.0 mm 179 W/m2
13:49 16.4 °C 10.5 °C 1029.3 hPa SSW 18.3 km/h 21.9 km/h 68% 0.0 mm 219 W/m2
13:55 16.5 °C 11.0 °C 1029.3 hPa South 13.4 km/h 23.3 km/h 70% 0.0 mm 203 W/m2
14:01 16.5 °C 10.6 °C 1029.3 hPa South 14.8 km/h 23.3 km/h 68% 0.0 mm 217 W/m2
14:07 16.6 °C 10.4 °C 1029.3 hPa SSW 7.2 km/h 24.5 km/h 67% 0.0 mm 226 W/m2
14:13 16.7 °C 10.8 °C 1029.3 hPa SSW 8.7 km/h 27.0 km/h 68% 0.0 mm 216 W/m2
14:19 16.7 °C 10.6 °C 1029.0 hPa SSW 7.2 km/h 24.5 km/h 67% 0.0 mm 211 W/m2
14:25 16.8 °C 10.7 °C 1029.3 hPa SSW 13.4 km/h 24.5 km/h 67% 0.0 mm 216 W/m2
14:31 16.9 °C 10.7 °C 1029.3 hPa SSW 13.4 km/h 20.9 km/h 67% 0.0 mm 223 W/m2
14:37 16.8 °C 10.4 °C 1029.3 hPa South 12.2 km/h 20.9 km/h 66% 0.0 mm 204 W/m2
14:43 16.7 °C 10.1 °C 1029.0 hPa South 14.8 km/h 20.9 km/h 65% 0.0 mm 185 W/m2
14:49 16.7 °C 10.1 °C 1029.3 hPa SSW 3.5 km/h 19.5 km/h 65% 0.0 mm 163 W/m2
14:55 16.6 °C 10.4 °C 1029.3 hPa South 17.2 km/h 23.3 km/h 67% 0.0 mm 137 W/m2
15:01 16.3 °C 10.6 °C 1029.0 hPa SSW 12.2 km/h 23.3 km/h 69% 0.0 mm 127 W/m2
15:07 16.2 °C 11.2 °C 1029.3 hPa SSW 9.7 km/h 20.9 km/h 72% 0.0 mm 118 W/m2
15:13 16.1 °C 11.1 °C 1029.0 hPa South 13.4 km/h 23.3 km/h 72% 0.0 mm 135 W/m2
15:19 16.0 °C 10.6 °C 1029.3 hPa South 13.4 km/h 23.3 km/h 70% 0.0 mm 137 W/m2
15:25 16.1 °C 10.6 °C 1029.0 hPa South 8.7 km/h 23.3 km/h 70% 0.0 mm 143 W/m2
15:31 16.2 °C 10.3 °C 1029.3 hPa SSW 13.4 km/h 21.9 km/h 68% 0.0 mm 134 W/m2
15:37 16.2 °C 10.1 °C 1029.3 hPa SSW 6.1 km/h 23.3 km/h 67% 0.0 mm 138 W/m2
15:43 16.2 °C 10.1 °C 1029.3 hPa SSW 9.7 km/h 20.9 km/h 67% 0.0 mm 136 W/m2
15:49 16.2 °C 10.3 °C 1029.0 hPa South 13.4 km/h 20.9 km/h 68% 0.0 mm 130 W/m2
15:55 16.2 °C 10.5 °C 1029.3 hPa South 9.7 km/h 20.9 km/h 69% 0.0 mm 128 W/m2
16:01 16.3 °C 10.2 °C 1029.0 hPa South 14.8 km/h 19.5 km/h 67% 0.0 mm 126 W/m2
16:07 16.3 °C 10.6 °C 1029.3 hPa South 12.2 km/h 19.5 km/h 69% 0.0 mm 114 W/m2
16:13 16.3 °C 10.6 °C 1029.0 hPa SSW 9.7 km/h 15.8 km/h 69% 0.0 mm 122 W/m2
16:19 16.3 °C 10.4 °C 1029.3 hPa SSW 7.2 km/h 18.3 km/h 68% 0.0 mm 114 W/m2
16:25 16.4 °C 10.5 °C 1029.3 hPa South 13.4 km/h 18.3 km/h 68% 0.0 mm 103 W/m2
16:31 16.3 °C 10.2 °C 1029.3 hPa South 9.7 km/h 18.3 km/h 67% 0.0 mm 89 W/m2
16:37 16.1 °C 10.0 °C 1029.3 hPa South 8.7 km/h 18.3 km/h 67% 0.0 mm 80 W/m2
16:43 16.1 °C 10.2 °C 1029.0 hPa South 5.0 km/h 15.8 km/h 68% 0.0 mm 74 W/m2
16:49 16.0 °C 9.9 °C 1029.3 hPa South 6.1 km/h 15.8 km/h 67% 0.0 mm 55 W/m2
16:55 15.9 °C 10.0 °C 1029.0 hPa South 8.7 km/h 15.8 km/h 68% 0.0 mm 49 W/m2
17:01 15.9 °C 10.0 °C 1029.0 hPa South 8.7 km/h 14.8 km/h 68% 0.0 mm 36 W/m2
17:07 15.7 °C 9.8 °C 1029.3 hPa South 6.1 km/h 14.8 km/h 68% 0.0 mm 25 W/m2
17:13 15.7 °C 9.6 °C 1029.3 hPa South 6.1 km/h 15.8 km/h 67% 0.0 mm 21 W/m2
17:19 15.7 °C 9.8 °C 1029.0 hPa South 7.2 km/h 12.2 km/h 68% 0.0 mm 20 W/m2
17:25 15.7 °C 9.8 °C 1029.3 hPa South 5.0 km/h 13.4 km/h 68% 0.0 mm 17 W/m2
17:31 15.7 °C 9.8 °C 1029.3 hPa South 6.1 km/h 13.4 km/h 68% 0.0 mm 13 W/m2
17:37 15.6 °C 9.9 °C 1029.3 hPa South 7.2 km/h 11.1 km/h 69% 0.0 mm 8 W/m2
17:43 15.6 °C 10.4 °C 1029.3 hPa South 6.1 km/h 14.8 km/h 71% 0.0 mm 4 W/m2
17:49 15.5 °C 10.7 °C 1029.7 hPa Calm   14.8 km/h 73% 0.0 mm 1 W/m2
17:55 15.4 °C 10.8 °C 1029.3 hPa SSE 2.6 km/h 9.7 km/h 74% 0.0 mm 0 W/m2
18:01 15.3 °C 10.7 °C 1029.3 hPa SE 6.1 km/h 13.4 km/h 74% 0.0 mm 0 W/m2
18:07 15.3 °C 10.7 °C 1029.7 hPa SE 5.0 km/h 9.7 km/h 74% 0.0 mm 0 W/m2
18:13 15.2 °C 10.6 °C 1029.3 hPa ESE 3.5 km/h 8.7 km/h 74% 0.0 mm 0 W/m2
18:19 15.2 °C 10.6 °C 1029.7 hPa SE 2.6 km/h 7.2 km/h 74% 0.0 mm 0 W/m2
18:25 15.2 °C 10.6 °C 1029.7 hPa SE 2.6 km/h 9.7 km/h 74% 0.0 mm 0 W/m2
18:31 15.2 °C 10.6 °C 1029.7 hPa SE 1.1 km/h 9.7 km/h 74% 0.0 mm 0 W/m2
18:37 15.1 °C 10.7 °C 1029.3 hPa ESE 1.1 km/h 7.2 km/h 75% 0.0 mm 0 W/m2
18:43 15.0 °C 10.6 °C 1029.7 hPa Calm   6.1 km/h 75% 0.0 mm 0 W/m2
18:49 14.9 °C 10.7 °C 1029.7 hPa SE 2.6 km/h 6.1 km/h 76% 0.0 mm 0 W/m2
18:55 14.9 °C 10.7 °C 1029.7 hPa ESE 3.5 km/h 9.7 km/h 76% 0.0 mm 0 W/m2
19:01 15.0 °C 10.6 °C 1029.7 hPa Calm   9.7 km/h 75% 0.0 mm 0 W/m2
19:07 15.0 °C 10.4 °C 1029.7 hPa Calm   8.7 km/h 74% 0.0 mm 0 W/m2
19:13 15.0 °C 10.4 °C 1029.7 hPa SSE 7.2 km/h 12.2 km/h 74% 0.0 mm 0 W/m2
19:19 15.1 °C 10.7 °C 1029.7 hPa SSE 5.0 km/h 14.8 km/h 75% 0.0 mm 0 W/m2
19:25 15.1 °C 10.7 °C 1029.7 hPa SE 3.5 km/h 17.2 km/h 75% 0.0 mm 0 W/m2
19:31 15.0 °C 10.6 °C 1029.7 hPa SE 6.1 km/h 17.2 km/h 75% 0.0 mm 0 W/m2
19:37 15.0 °C 10.6 °C 1029.7 hPa SE 1.1 km/h 17.2 km/h 75% 0.0 mm 0 W/m2
19:43 15.0 °C 10.4 °C 1029.7 hPa SSE 5.0 km/h 17.2 km/h 74% 0.0 mm 0 W/m2
19:49 15.0 °C 10.4 °C 1029.7 hPa SSE 1.1 km/h 12.2 km/h 74% 0.0 mm 0 W/m2
19:55 15.0 °C 10.4 °C 1029.7 hPa SE 7.2 km/h 12.2 km/h 74% 0.0 mm 0 W/m2
20:01 15.0 °C 10.2 °C 1029.7 hPa SE 1.1 km/h 12.2 km/h 73% 0.0 mm 0 W/m2
20:07 15.0 °C 9.8 °C 1030.0 hPa SE 3.5 km/h 12.2 km/h 71% 0.0 mm 0 W/m2
20:13 15.0 °C 9.8 °C 1030.0 hPa Calm   12.2 km/h 71% 0.0 mm 0 W/m2
20:19 15.0 °C 9.6 °C 1030.0 hPa SSE 1.1 km/h 11.1 km/h 70% 0.0 mm 0 W/m2
20:25 15.0 °C 9.6 °C 1030.0 hPa Calm   11.1 km/h 70% 0.0 mm 0 W/m2
20:31 14.9 °C 9.9 °C 1030.0 hPa Calm   3.5 km/h 72% 0.0 mm 0 W/m2
20:37 14.9 °C 9.9 °C 1030.0 hPa Calm   2.6 km/h 72% 0.0 mm 0 W/m2
20:43 14.8 °C 10.0 °C 1030.4 hPa Calm   2.6 km/h 73% 0.0 mm 0 W/m2
20:49 14.8 °C 10.2 °C 1030.4 hPa ENE 2.6 km/h 6.1 km/h 74% 0.0 mm 0 W/m2
20:55 14.8 °C 10.4 °C 1030.0 hPa Calm   6.1 km/h 75% 0.0 mm 0 W/m2
21:01 14.6 °C 10.2 °C 1030.4 hPa Calm   5.0 km/h 75% 0.0 mm 0 W/m2
21:07 14.4 °C 10.2 °C 1030.4 hPa Calm   6.1 km/h 76% 0.0 mm 0 W/m2
21:13 14.3 °C 10.3 °C 1030.4 hPa Calm     77% 0.0 mm 0 W/m2
21:19 14.0 °C 10.2 °C 1030.0 hPa Calm     78% 0.0 mm 0 W/m2
21:25 13.9 °C 10.7 °C 1030.4 hPa Calm     81% 0.0 mm 0 W/m2
21:31 13.8 °C 10.8 °C 1030.4 hPa Calm   5.0 km/h 82% 0.0 mm 0 W/m2
21:37 13.7 °C 10.5 °C 1030.4 hPa Calm   3.5 km/h 81% 0.0 mm 0 W/m2
21:43 13.6 °C 10.4 °C 1030.4 hPa Calm   1.1 km/h 81% 0.0 mm 0 W/m2
21:49 13.6 °C 10.4 °C 1030.4 hPa Calm   1.1 km/h 81% 0.0 mm 0 W/m2
21:55 13.6 °C 10.2 °C 1030.4 hPa Calm   1.1 km/h 80% 0.0 mm 0 W/m2
22:01 13.6 °C 10.4 °C 1030.4 hPa Calm     81% 0.0 mm 0 W/m2
22:07 13.6 °C 10.4 °C 1030.4 hPa Calm   1.1 km/h 81% 0.0 mm 0 W/m2
22:13 13.6 °C 10.6 °C 1030.4 hPa Calm   1.1 km/h 82% 0.0 mm 0 W/m2
22:19 13.6 °C 10.8 °C 1030.4 hPa Calm   1.1 km/h 83% 0.0 mm 0 W/m2
22:25 13.5 °C 10.8 °C 1030.4 hPa Calm     84% 0.0 mm 0 W/m2
22:31 13.4 °C 10.9 °C 1030.4 hPa Calm   5.0 km/h 85% 0.0 mm 0 W/m2
22:37 13.3 °C 11.0 °C 1030.4 hPa Calm   6.1 km/h 86% 0.0 mm 0 W/m2
22:43 13.3 °C 11.2 °C 1030.4 hPa NW 2.6 km/h 6.1 km/h 87% 0.0 mm 0 W/m2
22:49 13.3 °C 11.3 °C 1030.4 hPa NNW 2.6 km/h 6.1 km/h 88% 0.0 mm 0 W/m2
22:55 13.3 °C 11.3 °C 1030.7 hPa NNW 3.5 km/h 8.7 km/h 88% 0.0 mm 0 W/m2
23:01 13.3 °C 11.6 °C 1030.4 hPa NW 7.2 km/h 9.7 km/h 89% 0.0 mm 0 W/m2
23:07 13.3 °C 11.7 °C 1030.4 hPa NW 6.1 km/h 11.1 km/h 90% 0.0 mm 0 W/m2
23:13 13.2 °C 11.6 °C 1030.4 hPa NNW 3.5 km/h 11.1 km/h 90% 0.0 mm 0 W/m2
23:19 13.2 °C 11.8 °C 1030.0 hPa NNW 1.1 km/h 9.7 km/h 91% 0.0 mm 0 W/m2
23:25 13.2 °C 11.8 °C 1030.0 hPa NNW 1.1 km/h 8.7 km/h 91% 0.0 mm 0 W/m2
23:32 13.1 °C 11.7 °C 1030.0 hPa NNW 2.6 km/h 6.1 km/h 91% 0.0 mm 0 W/m2
23:38 13.1 °C 11.7 °C 1030.4 hPa Calm   6.1 km/h 91% 0.0 mm 0 W/m2
23:46 13.0 °C 11.6 °C 1030.0 hPa NNW 3.5 km/h 6.1 km/h 91% 0.0 mm 0 W/m2
23:52 13.0 °C 11.7 °C 1030.4 hPa Calm   6.1 km/h 92% 0.0 mm 0 W/m2
23:58 13.0 °C 11.7 °C 1030.0 hPa Calm   5.0 km/h 92% 0.0 mm 0 W/m2
Northern Hawkes Bay. New Zealand Historic Data
Compliments of Weather Underground - 2 mb